Time;durP1;ratioP1;P1;durP2;ratioP2;P2;SDS_P1;SDS_P2;PMS_P1;PMS_P2;Temp;Humidity;BMP_temperature;BMP_pressure;BME280_temperature;BME280_humidity;BME280_pressure;Samples;Min_cycle;Max_cycle;Signal;HPM_P1;HPM_P2
2023/11/28 00:02:20;;;;;;;0.60;0.60;;;;;;;2.29;100.00;96791.78;5099504;28;20050;-59
2023/11/28 00:04:49;;;;;;;0.50;0.50;;;;;;;2.32;100.00;96793.94;5095826;28;20526;-61
2023/11/28 00:07:16;;;;;;;0.50;0.50;;;;;;;2.33;100.00;96792.88;5097828;28;20803;-61
2023/11/28 00:09:44;;;;;;;0.60;0.60;;;;;;;2.37;100.00;96801.09;5096117;28;20472;-60
2023/11/28 00:12:11;;;;;;;0.60;0.60;;;;;;;2.50;100.00;96790.16;5092134;28;20044;-60
2023/11/28 00:14:38;;;;;;;0.60;0.60;;;;;;;2.55;100.00;96797.34;5098974;28;20525;-60
2023/11/28 00:17:07;;;;;;;0.50;0.50;;;;;;;2.59;100.00;96799.22;5100859;28;20490;-60
2023/11/28 00:19:36;;;;;;;0.40;0.40;;;;;;;2.71;100.00;96791.13;5096107;28;20058;-60
2023/11/28 00:22:03;;;;;;;0.50;0.50;;;;;;;2.79;100.00;96803.88;5099562;28;20093;-61
2023/11/28 00:24:31;;;;;;;0.57;0.57;;;;;;;2.81;100.00;96801.78;5097221;28;20048;-60
2023/11/28 00:26:58;;;;;;;0.40;0.40;;;;;;;2.85;100.00;96801.31;5095789;28;20616;-60
2023/11/28 00:29:26;;;;;;;0.50;0.50;;;;;;;2.94;100.00;96805.06;5099225;28;20054;-59
2023/11/28 00:31:53;;;;;;;0.50;0.50;;;;;;;2.89;100.00;96810.31;5095090;28;20039;-59
2023/11/28 00:34:22;;;;;;;0.40;0.40;;;;;;;2.99;100.00;96813.84;5097803;28;20130;-59
2023/11/28 00:36:49;;;;;;;0.60;0.60;;;;;;;2.98;100.00;96808.81;5093732;28;20383;-59
2023/11/28 00:39:16;;;;;;;0.50;0.50;;;;;;;3.03;100.00;96819.44;5098816;28;20613;-59
2023/11/28 00:41:44;;;;;;;0.55;0.55;;;;;;;3.01;100.00;96829.47;5093210;28;20047;-59
2023/11/28 00:44:11;;;;;;;0.40;0.40;;;;;;;3.06;100.00;96821.56;5096608;28;20044;-60
2023/11/28 00:46:39;;;;;;;0.60;0.60;;;;;;;3.07;100.00;96830.31;5098382;28;20402;-59
2023/11/28 00:49:06;;;;;;;0.40;0.40;;;;;;;3.07;100.00;96847.00;5096801;28;20124;-60
2023/11/28 00:51:35;;;;;;;0.50;0.50;;;;;;;3.04;100.00;96847.50;5099973;27;20043;-59
2023/11/28 00:54:02;;;;;;;0.60;0.60;;;;;;;2.90;100.00;96852.41;5097160;28;20300;-59
2023/11/28 00:56:29;;;;;;;0.40;0.40;;;;;;;2.86;100.00;96864.53;5093818;28;20056;-59
2023/11/28 00:58:56;;;;;;;0.60;0.60;;;;;;;2.75;100.00;96868.16;5099233;28;20101;-59
2023/11/28 01:01:24;;;;;;;0.50;0.50;;;;;;;2.45;100.00;96882.66;5095716;28;20668;-59
2023/11/28 01:03:51;;;;;;;0.50;0.50;;;;;;;2.31;100.00;96890.13;5095033;28;20371;-59
2023/11/28 01:06:18;;;;;;;0.50;0.50;;;;;;;2.14;100.00;96892.84;5098265;28;20138;-60
2023/11/28 01:08:46;;;;;;;0.50;0.50;;;;;;;1.98;100.00;96882.34;5109351;27;20061;-59
2023/11/28 01:11:14;;;;;;;0.63;0.63;;;;;;;1.87;100.00;96897.22;5093579;28;20043;-59
2023/11/28 01:13:41;;;;;;;0.40;0.40;;;;;;;1.90;100.00;96902.84;5098434;28;20117;-59
2023/11/28 01:16:11;;;;;;;0.50;0.50;;;;;;;1.70;100.00;96902.56;5093660;28;20126;-59
2023/11/28 01:18:38;;;;;;;0.55;0.55;;;;;;;1.62;100.00;96901.13;5109249;27;20406;-59
2023/11/28 01:21:05;;;;;;;0.40;0.40;;;;;;;1.73;100.00;96912.63;5098521;28;20071;-60
2023/11/28 01:23:32;;;;;;;0.60;0.60;;;;;;;1.71;100.00;96920.78;5095965;28;20581;-60
2023/11/28 01:26:01;;;;;;;0.60;0.60;;;;;;;1.63;100.00;96915.13;5095181;28;20051;-59
2023/11/28 01:28:28;;;;;;;0.65;0.65;;;;;;;1.61;100.00;96925.13;5092957;28;20126;-59
2023/11/28 01:30:56;;;;;;;0.57;0.57;;;;;;;1.50;100.00;96934.72;5091926;28;20035;-59
2023/11/28 01:33:23;;;;;;;0.50;0.50;;;;;;;1.41;100.00;96931.69;5096027;28;20051;-60
2023/11/28 01:35:50;;;;;;;0.60;0.60;;;;;;;1.26;100.00;96934.06;5095378;28;20556;-59
2023/11/28 01:38:17;;;;;;;0.60;0.60;;;;;;;1.27;100.00;96936.47;5094858;28;20055;-59
2023/11/28 01:40:44;;;;;;;0.80;0.80;;;;;;;1.27;100.00;96946.22;5091536;28;20085;-59
2023/11/28 01:43:18;;;;;;;0.70;0.70;;;;;;;1.13;100.00;96951.00;5097884;28;20032;-59
2023/11/28 01:45:45;;;;;;;0.60;0.60;;;;;;;1.06;100.00;96951.16;5095286;28;20070;-59
2023/11/28 01:48:12;;;;;;;0.60;0.60;;;;;;;1.07;100.00;96952.78;5097579;28;20040;-58
2023/11/28 01:50:40;;;;;;;0.60;0.60;;;;;;;0.98;100.00;96959.44;5094953;28;20071;-59
2023/11/28 01:53:07;;;;;;;0.70;0.70;;;;;;;0.90;100.00;96956.38;5096415;28;20071;-59
2023/11/28 01:55:34;;;;;;;0.80;0.80;;;;;;;0.88;100.00;96966.38;5092855;28;20036;-58
2023/11/28 01:58:01;;;;;;;0.70;0.70;;;;;;;0.81;100.00;96982.34;5098819;28;20516;-58
2023/11/28 02:00:30;;;;;;;0.52;0.52;;;;;;;0.75;100.00;96986.72;5090137;28;20028;-59
2023/11/28 02:02:57;;;;;;;0.80;0.80;;;;;;;0.76;100.00;96990.94;5094759;28;20064;-58
2023/11/28 02:05:25;;;;;;;0.73;0.73;;;;;;;0.77;100.00;97000.44;5095850;28;20483;-59
2023/11/28 02:07:53;;;;;;;0.60;0.60;;;;;;;0.75;100.00;96999.09;5095695;28;20549;-59
2023/11/28 02:10:21;;;;;;;0.70;0.70;;;;;;;0.71;100.00;97013.78;5091555;28;20387;-59
2023/11/28 02:12:48;;;;;;;0.70;0.70;;;;;;;0.67;100.00;97023.97;5098556;28;20639;-58
2023/11/28 02:15:15;;;;;;;0.60;0.60;;;;;;;0.58;100.00;97023.56;5097372;28;20076;-58
2023/11/28 02:17:44;;;;;;;0.60;0.60;;;;;;;0.61;100.00;97031.00;5092426;28;20488;-58
2023/11/28 02:20:11;;;;;;;0.73;0.73;;;;;;;0.63;100.00;97030.78;5094460;28;20100;-61
2023/11/28 02:22:38;;;;;;;0.80;0.80;;;;;;;0.60;100.00;97031.22;5101756;28;20054;-59
2023/11/28 02:25:07;;;;;;;0.70;0.70;;;;;;;0.50;100.00;97033.63;5080228;28;20055;-59
2023/11/28 02:27:36;;;;;;;0.70;0.70;;;;;;;0.41;100.00;97036.63;5101690;28;20106;-59
2023/11/28 02:30:03;;;;;;;0.70;0.70;;;;;;;0.42;100.00;97050.59;5100644;28;20039;-59
2023/11/28 02:32:32;;;;;;;0.75;0.75;;;;;;;0.43;100.00;97057.50;5094171;28;20043;-59
2023/11/28 02:34:59;;;;;;;0.60;0.60;;;;;;;0.32;100.00;97053.03;5098793;28;20140;-58
2023/11/28 02:37:26;;;;;;;0.60;0.60;;;;;;;0.31;100.00;97057.50;5099858;27;20119;-59
2023/11/28 02:39:54;;;;;;;0.70;0.70;;;;;;;0.29;100.00;97061.38;5100940;28;20035;-60
2023/11/28 02:42:21;;;;;;;0.60;0.60;;;;;;;0.28;100.00;97065.06;5095125;28;20376;-59
2023/11/28 02:44:50;;;;;;;0.70;0.70;;;;;;;0.34;100.00;97064.94;5115219;27;20040;-59
2023/11/28 02:47:17;;;;;;;0.60;0.60;;;;;;;0.30;100.00;97065.63;5109350;27;20048;-59
2023/11/28 02:49:44;;;;;;;0.60;0.60;;;;;;;0.16;100.00;97078.22;5094617;28;20598;-59
2023/11/28 02:52:11;;;;;;;0.63;0.63;;;;;;;0.19;100.00;97073.28;5099718;28;20127;-60
2023/11/28 02:54:39;;;;;;;0.60;0.60;;;;;;;0.18;100.00;97082.25;5098727;28;20035;-59
2023/11/28 02:57:06;;;;;;;0.70;0.70;;;;;;;0.12;100.00;97084.97;5100278;28;20472;-60
2023/11/28 02:59:33;;;;;;;0.70;0.70;;;;;;;0.09;100.00;97088.88;5096104;28;20048;-60
2023/11/28 03:02:01;;;;;;;0.70;0.70;;;;;;;0.05;100.00;97093.00;5111913;27;20067;-60
2023/11/28 03:04:28;;;;;;;0.70;0.70;;;;;;;0.03;100.00;97096.91;5099583;28;20108;-60
2023/11/28 03:06:55;;;;;;;0.80;0.80;;;;;;;0.06;100.00;97097.22;5101591;27;20135;-60
2023/11/28 03:09:22;;;;;;;0.77;0.77;;;;;;;0.02;100.00;97109.22;5096680;28;20051;-60
2023/11/28 03:11:49;;;;;;;0.80;0.80;;;;;;;0.09;100.00;97109.13;5098668;28;20142;-60
2023/11/28 03:14:16;;;;;;;0.80;0.80;;;;;;;0.03;100.00;97116.13;5096950;28;20553;-60
2023/11/28 03:16:43;;;;;;;0.70;0.70;;;;;;;0.03;100.00;97124.03;5096213;28;20044;-60
2023/11/28 03:19:12;;;;;;;0.80;0.80;;;;;;;-0.01;100.00;97128.13;5111659;27;20136;-60
2023/11/28 03:21:40;;;;;;;0.63;0.63;;;;;;;0.03;100.00;97117.97;5097840;28;20100;-61
2023/11/28 03:24:08;;;;;;;0.80;0.80;;;;;;;0.09;100.00;97123.09;5097909;28;20254;-60
2023/11/28 03:26:35;;;;;;;0.60;0.60;;;;;;;0.05;100.00;97135.16;5097589;28;20207;-59
2023/11/28 03:29:03;;;;;;;0.80;0.80;;;;;;;-0.04;100.00;97132.03;5097246;28;20269;-59
2023/11/28 03:31:32;;;;;;;0.60;0.60;;;;;;;0.04;100.00;97138.78;5095038;28;20039;-59
2023/11/28 03:34:00;;;;;;;0.80;0.80;;;;;;;-0.12;100.00;97145.53;5098648;28;20050;-59
2023/11/28 03:36:29;;;;;;;0.85;0.85;;;;;;;-0.17;100.00;97152.50;5099500;28;20052;-59
2023/11/28 03:38:56;;;;;;;0.80;0.80;;;;;;;-0.18;100.00;97162.19;5097169;28;20051;-59
2023/11/28 03:41:23;;;;;;;0.70;0.70;;;;;;;-0.13;100.00;97161.53;5095581;28;20040;-60
2023/11/28 03:43:50;;;;;;;0.80;0.80;;;;;;;-0.13;100.00;97161.53;5100236;28;20554;-60
2023/11/28 03:46:17;;;;;;;0.80;0.80;;;;;;;-0.10;100.00;97174.25;5098303;28;20147;-60
2023/11/28 03:48:44;;;;;;;0.73;0.73;;;;;;;-0.11;100.00;97178.72;5098389;28;20043;-59
2023/11/28 03:51:11;;;;;;;0.80;0.80;;;;;;;-0.13;100.00;97178.13;5101349;28;20758;-60
2023/11/28 03:53:40;;;;;;;0.70;0.70;;;;;;;-0.20;100.00;97187.16;5097099;27;20111;-60
2023/11/28 03:56:08;;;;;;;0.68;0.68;;;;;;;-0.16;100.00;97202.28;5096986;27;20127;-60
2023/11/28 03:58:35;;;;;;;0.70;0.70;;;;;;;-0.22;100.00;97203.97;5095442;27;20453;-59
2023/11/28 04:01:02;;;;;;;0.77;0.77;;;;;;;-0.19;100.00;97213.25;5098715;28;20416;-59
2023/11/28 04:03:29;;;;;;;0.80;0.80;;;;;;;-0.24;100.00;97215.75;5096402;27;20554;-59
2023/11/28 04:05:56;;;;;;;0.63;0.63;;;;;;;-0.24;100.00;97229.72;5099819;28;20544;-60
2023/11/28 04:08:23;;;;;;;0.80;0.80;;;;;;;-0.20;100.00;97237.16;5098091;28;20067;-60
2023/11/28 04:10:52;;;;;;;0.85;0.85;;;;;;;-0.29;100.00;97229.59;5109451;27;22014;-61
2023/11/28 04:13:19;;;;;;;0.80;0.80;;;;;;;-0.20;100.00;97248.53;5098398;28;20036;-60
2023/11/28 04:15:46;;;;;;;0.73;0.73;;;;;;;-0.20;100.00;97250.34;5094341;28;20583;-60
2023/11/28 04:18:13;;;;;;;0.82;0.82;;;;;;;-0.20;100.00;97252.97;5099814;28;20048;-60
2023/11/28 04:20:40;;;;;;;0.80;0.80;;;;;;;-0.27;100.00;97259.13;5091092;27;20047;-59
2023/11/28 04:23:08;;;;;;;0.60;0.60;;;;;;;-0.29;100.00;97269.06;5090490;28;20036;-60
2023/11/28 04:25:35;;;;;;;0.70;0.70;;;;;;;-0.31;100.00;97271.13;5090278;28;20091;-59
2023/11/28 04:28:04;;;;;;;0.80;0.80;;;;;;;-0.23;100.00;97285.81;5109451;27;20051;-59
2023/11/28 04:30:32;;;;;;;0.73;0.73;;;;;;;-0.28;100.00;97285.66;5093433;27;20315;-59
2023/11/28 04:32:59;;;;;;;0.75;0.75;;;;;;;-0.25;100.00;97298.38;5096666;28;20036;-59
2023/11/28 04:35:26;;;;;;;0.70;0.70;;;;;;;-0.29;100.00;97298.03;5096228;28;20096;-59
2023/11/28 04:37:53;;;;;;;0.80;0.80;;;;;;;-0.23;100.00;97297.13;5100455;28;20044;-59
2023/11/28 04:40:21;;;;;;;0.80;0.80;;;;;;;-0.26;100.00;97302.84;5090957;28;20236;-59
2023/11/28 04:42:48;;;;;;;0.80;0.80;;;;;;;-0.24;100.00;97306.06;5095273;27;20393;-59
2023/11/28 04:45:16;;;;;;;0.75;0.75;;;;;;;-0.19;100.00;97302.00;5097765;28;20403;-60
2023/11/28 04:47:45;;;;;;;0.80;0.80;;;;;;;-0.24;100.00;97321.88;5076683;28;20439;-59
2023/11/28 04:50:12;;;;;;;0.80;0.80;;;;;;;-0.30;100.00;97317.50;5089687;28;20055;-60
2023/11/28 04:52:41;;;;;;;0.80;0.80;;;;;;;-0.31;100.00;97326.41;5088657;28;20504;-59
2023/11/28 04:55:09;;;;;;;0.70;0.70;;;;;;;-0.27;100.00;97338.13;5114345;27;20047;-59
2023/11/28 04:57:38;;;;;;;0.80;0.80;;;;;;;-0.26;100.00;97334.44;5096696;28;20119;-60
2023/11/28 05:00:10;;;;;;;0.70;0.70;;;;;;;-0.19;100.00;97334.38;5092952;28;20413;-60
2023/11/28 05:02:44;;;;;;;0.90;0.90;;;;;;;-0.24;100.00;97340.31;5095292;28;20798;-59
2023/11/28 05:05:14;;;;;;;0.80;0.80;;;;;;;-0.30;100.00;97351.72;5097629;27;20557;-59
2023/11/28 05:07:45;;;;;;;0.70;0.70;;;;;;;-0.32;100.00;97356.41;5097465;28;20039;-63
2023/11/28 05:10:12;;;;;;;0.80;0.80;;;;;;;-0.33;100.00;97365.31;5111570;27;20413;-60
2023/11/28 05:12:41;;;;;;;0.68;0.68;;;;;;;-0.26;100.00;97371.31;5092818;28;20093;-61
2023/11/28 05:15:09;;;;;;;0.80;0.80;;;;;;;-0.33;100.00;97386.34;5090798;28;20034;-60
2023/11/28 05:17:36;;;;;;;0.60;0.60;;;;;;;-0.24;100.00;97389.53;5085781;28;20880;-61
2023/11/28 05:20:08;;;;;;;0.60;0.60;;;;;;;-0.19;100.00;97391.50;5112582;27;20410;-58
2023/11/28 05:22:39;;;;;;;0.80;0.80;;;;;;;-0.16;100.00;97401.59;5087016;28;20063;-59
2023/11/28 05:25:08;;;;;;;0.70;0.70;;;;;;;-0.24;100.00;97408.75;5092789;28;20039;-62
2023/11/28 05:27:36;;;;;;;0.80;0.80;;;;;;;-0.24;100.00;97406.13;5093146;28;20441;-59
2023/11/28 05:30:06;;;;;;;0.60;0.60;;;;;;;-0.22;100.00;97422.53;5092613;28;20032;-59
2023/11/28 05:32:34;;;;;;;0.55;0.55;;;;;;;-0.28;100.00;97420.75;5094704;28;20042;-62
2023/11/28 05:35:02;;;;;;;0.70;0.70;;;;;;;-0.24;100.00;97421.94;5094633;28;20044;-59
2023/11/28 05:37:32;;;;;;;0.65;0.65;;;;;;;-0.24;100.00;97427.19;5093404;28;20417;-59
2023/11/28 05:40:02;;;;;;;0.60;0.60;;;;;;;-0.27;100.00;97426.84;5096061;28;20138;-60
2023/11/28 05:42:32;;;;;;;0.70;0.70;;;;;;;-0.34;100.00;97428.72;5092634;28;20416;-61
2023/11/28 05:45:15;;;;;;;0.80;0.80;;;;;;;-0.32;100.00;97435.38;5097601;28;20098;-60
2023/11/28 05:47:45;;;;;;;0.70;0.70;;;;;;;-0.27;100.00;97451.34;5090227;28;20048;-60
2023/11/28 05:50:13;;;;;;;0.80;0.80;;;;;;;-0.18;100.00;97457.13;5101078;27;20052;-59
2023/11/28 05:52:41;;;;;;;0.80;0.80;;;;;;;-0.16;100.00;97451.63;5096774;28;20040;-59
2023/11/28 05:55:08;;;;;;;0.90;0.90;;;;;;;-0.19;100.00;97481.03;5085555;28;20044;-59
2023/11/28 05:57:35;;;;;;;0.70;0.70;;;;;;;-0.32;100.00;97480.13;5091077;28;20458;-59
2023/11/28 06:00:04;;;;;;;0.70;0.70;;;;;;;-0.33;100.00;97481.13;5093467;28;20055;-58
2023/11/28 06:02:32;;;;;;;0.80;0.80;;;;;;;-0.22;100.00;97482.28;5090806;28;20094;-58
2023/11/28 06:04:59;;;;;;;0.70;0.70;;;;;;;-0.24;100.00;97495.66;5088016;28;20042;-58
2023/11/28 06:07:27;;;;;;;0.77;0.77;;;;;;;-0.26;100.00;97494.25;5091348;28;20113;-60
2023/11/28 06:09:57;;;;;;;0.80;0.80;;;;;;;-0.28;100.00;97494.47;5096259;28;20059;-58
2023/11/28 06:12:24;;;;;;;0.70;0.70;;;;;;;-0.27;100.00;97509.25;5095655;28;20046;-59
2023/11/28 06:14:54;;;;;;;0.60;0.60;;;;;;;-0.28;100.00;97520.78;5106392;27;20055;-59
2023/11/28 06:17:21;;;;;;;0.82;0.82;;;;;;;-0.27;100.00;97525.06;5093206;28;20518;-60
2023/11/28 06:19:48;;;;;;;0.70;0.70;;;;;;;-0.36;100.00;97517.63;5093205;28;20532;-59
2023/11/28 06:22:17;;;;;;;0.63;0.63;;;;;;;-0.35;100.00;97522.69;5084591;28;20040;-60
2023/11/28 06:24:44;;;;;;;0.80;0.80;;;;;;;-0.37;100.00;97532.63;5086622;28;20398;-60
2023/11/28 06:27:13;;;;;;;0.90;0.90;;;;;;;-0.32;100.00;97550.41;5094205;28;20048;-60
2023/11/28 06:29:40;;;;;;;0.73;0.73;;;;;;;-0.35;100.00;97567.44;5094650;28;20050;-60
2023/11/28 06:32:07;;;;;;;0.70;0.70;;;;;;;-0.20;100.00;97561.03;5093151;28;20035;-60
2023/11/28 06:34:36;;;;;;;0.65;0.65;;;;;;;-0.27;100.00;97564.53;5092315;28;20048;-58
2023/11/28 06:37:03;;;;;;;0.70;0.70;;;;;;;-0.30;100.00;97586.03;5091189;28;20071;-59
2023/11/28 06:39:33;;;;;;;0.63;0.63;;;;;;;-0.25;100.00;97590.66;5088135;28;20354;-59
2023/11/28 06:42:01;;;;;;;0.70;0.70;;;;;;;-0.27;100.00;97606.66;5096910;28;20050;-59
2023/11/28 06:44:33;;;;;;;0.70;0.70;;;;;;;-0.43;100.00;97613.22;5090242;28;20071;-59
2023/11/28 06:47:02;;;;;;;0.80;0.80;;;;;;;-0.44;100.00;97610.81;5090551;28;20051;-59
2023/11/28 06:49:31;;;;;;;0.77;0.77;;;;;;;-0.44;100.00;97621.34;5086952;28;20048;-61
2023/11/28 06:52:01;;;;;;;0.70;0.70;;;;;;;-0.40;100.00;97634.88;5098710;28;20044;-60
2023/11/28 06:54:33;;;;;;;0.80;0.80;;;;;;;-0.39;100.00;97631.25;5089855;28;20044;-61
2023/11/28 06:57:01;;;;;;;0.80;0.80;;;;;;;-0.40;100.00;97627.00;5091394;28;20128;-58
2023/11/28 06:59:28;;;;;;;0.80;0.80;;;;;;;-0.52;100.00;97640.03;5088430;28;20044;-58
2023/11/28 07:01:56;;;;;;;0.90;0.90;;;;;;;-0.50;100.00;97646.69;5104616;27;20047;-59
2023/11/28 07:04:23;;;;;;;0.80;0.80;;;;;;;-0.42;100.00;97650.91;5094968;28;20079;-58
2023/11/28 07:06:50;;;;;;;0.80;0.80;;;;;;;-0.46;100.00;97662.88;5096633;28;20122;-60
2023/11/28 07:09:17;;;;;;;0.60;0.60;;;;;;;-0.40;100.00;97669.94;5096077;28;20055;-61
2023/11/28 07:11:44;;;;;;;0.80;0.80;;;;;;;-0.45;100.00;97667.09;5097068;28;20143;-60
2023/11/28 07:14:11;;;;;;;0.70;0.70;;;;;;;-0.40;100.00;97691.00;5099952;28;20058;-60
2023/11/28 07:16:38;;;;;;;0.80;0.80;;;;;;;-0.41;100.00;97681.47;5097559;28;20044;-60
2023/11/28 07:19:07;;;;;;;0.77;0.77;;;;;;;-0.37;100.00;97698.47;5090552;28;20122;-60
2023/11/28 07:21:34;;;;;;;0.70;0.70;;;;;;;-0.42;100.00;97698.28;5091352;28;20048;-59
2023/11/28 07:24:02;;;;;;;0.75;0.75;;;;;;;-0.47;100.00;97716.53;5096019;28;20502;-58
2023/11/28 07:26:29;;;;;;;0.80;0.80;;;;;;;-0.44;100.00;97711.66;5087480;28;20051;-58
2023/11/28 07:28:56;;;;;;;0.60;0.60;;;;;;;-0.42;100.00;97714.09;5089486;28;20414;-58
2023/11/28 07:31:27;;;;;;;0.80;0.80;;;;;;;-0.44;100.00;97721.38;5090034;28;20886;-58
2023/11/28 07:33:54;;;;;;;0.80;0.80;;;;;;;-0.43;100.00;97722.97;5089497;28;20070;-58
2023/11/28 07:36:23;;;;;;;0.73;0.73;;;;;;;-0.38;100.00;97736.31;5093552;28;20058;-59
2023/11/28 07:38:50;;;;;;;0.70;0.70;;;;;;;-0.47;100.00;97742.88;5093334;28;20050;-59
2023/11/28 07:41:17;;;;;;;0.60;0.60;;;;;;;-0.49;100.00;97737.78;5091140;28;20070;-59
2023/11/28 07:43:44;;;;;;;0.80;0.80;;;;;;;-0.49;100.00;97745.69;5091575;28;20067;-58
2023/11/28 07:46:12;;;;;;;0.73;0.73;;;;;;;-0.48;100.00;97762.28;5096303;28;20152;-59
2023/11/28 07:48:39;;;;;;;0.60;0.60;;;;;;;-0.48;100.00;97754.38;5094041;28;20063;-59
2023/11/28 07:51:07;;;;;;;0.70;0.70;;;;;;;-0.47;100.00;97762.09;5094782;28;20151;-58
2023/11/28 07:53:36;;;;;;;0.80;0.80;;;;;;;-0.47;100.00;97763.91;5093129;28;20039;-59
2023/11/28 07:56:03;;;;;;;0.80;0.80;;;;;;;-0.42;100.00;97772.00;5090800;28;20439;-60
2023/11/28 07:58:30;;;;;;;0.85;0.85;;;;;;;-0.42;100.00;97790.44;5088180;28;20090;-60
2023/11/28 08:00:57;;;;;;;0.80;0.80;;;;;;;-0.41;100.00;97778.06;5095909;28;20145;-60
2023/11/28 08:03:24;;;;;;;0.90;0.90;;;;;;;-0.41;100.00;97786.78;5091066;28;20108;-60
2023/11/28 08:05:52;;;;;;;0.98;0.98;;;;;;;-0.43;100.00;97794.88;5095916;28;20195;-58
2023/11/28 08:08:20;;;;;;;0.90;0.90;;;;;;;-0.43;100.00;97788.78;5094299;28;20083;-59
2023/11/28 08:10:48;;;;;;;0.70;0.70;;;;;;;-0.34;100.00;97800.72;5095210;28;20062;-58
2023/11/28 08:13:17;;;;;;;0.70;0.70;;;;;;;-0.33;100.00;97815.50;5106231;27;20097;-58
2023/11/28 08:15:44;;;;;;;0.70;0.70;;;;;;;-0.31;100.00;97810.84;5091499;28;20418;-58
2023/11/28 08:18:12;;;;;;;0.80;0.80;;;;;;;-0.39;100.00;97813.69;5087542;28;20092;-59
2023/11/28 08:20:39;;;;;;;0.60;0.60;;;;;;;-0.31;100.00;97826.63;5091268;28;20401;-59
2023/11/28 08:23:06;;;;;;;0.68;0.68;;;;;;;-0.37;100.00;97830.09;5100068;28;20191;-64
2023/11/28 08:25:33;;;;;;;0.68;0.68;;;;;;;-0.33;100.00;97839.19;5092063;28;20048;-60
2023/11/28 08:28:02;;;;;;;0.77;0.77;;;;;;;-0.29;100.00;97837.78;5097253;28;20047;-60
2023/11/28 08:30:29;;;;;;;0.90;0.90;;;;;;;-0.33;100.00;97844.44;5094097;28;20044;-59
2023/11/28 08:32:56;;;;;;;0.80;0.80;;;;;;;-0.45;100.00;97848.72;5091540;28;20043;-60
2023/11/28 08:35:23;;;;;;;0.80;0.80;;;;;;;-0.32;100.00;97850.56;5086478;28;20482;-60
2023/11/28 08:37:50;;;;;;;0.68;0.68;;;;;;;-0.28;100.00;97851.75;5092200;28;20039;-59
2023/11/28 08:40:17;;;;;;;0.70;0.70;;;;;;;-0.29;100.00;97856.19;5089828;28;20132;-59
2023/11/28 08:42:45;;;;;;;0.80;0.80;;;;;;;-0.39;100.00;97850.56;5093285;28;20573;-59
2023/11/28 08:45:13;;;;;;;0.70;0.70;;;;;;;-0.32;100.00;97863.72;5094345;28;20044;-59
2023/11/28 08:47:40;;;;;;;0.80;0.80;;;;;;;-0.23;100.00;97867.72;5090534;28;20067;-59
2023/11/28 08:50:08;;;;;;;0.70;0.70;;;;;;;-0.28;100.00;97873.59;5090742;28;20052;-60
2023/11/28 08:52:35;;;;;;;0.80;0.80;;;;;;;-0.24;100.00;97880.09;5098701;28;20039;-60
2023/11/28 08:55:03;;;;;;;0.70;0.70;;;;;;;-0.21;100.00;97886.78;5098143;28;20040;-60
2023/11/28 08:57:34;;;;;;;0.82;0.82;;;;;;;-0.17;100.00;97900.34;5088017;28;20493;-59
2023/11/28 09:00:02;;;;;;;0.70;0.70;;;;;;;-0.32;100.00;97893.47;5084078;28;20047;-59
2023/11/28 09:02:30;;;;;;;0.70;0.70;;;;;;;-0.31;100.00;97895.09;5095172;28;20131;-59
2023/11/28 09:04:57;;;;;;;0.70;0.70;;;;;;;-0.27;100.00;97906.84;5087766;28;20040;-59
2023/11/28 09:07:24;;;;;;;0.70;0.70;;;;;;;-0.16;100.00;97907.22;5087506;28;20052;-59
2023/11/28 09:09:51;;;;;;;0.80;0.80;;;;;;;-0.25;100.00;97915.34;5083747;28;20051;-60
2023/11/28 09:12:18;;;;;;;0.70;0.70;;;;;;;-0.24;100.00;97916.97;5092955;28;20056;-60
2023/11/28 09:14:47;;;;;;;0.60;0.60;;;;;;;-0.26;100.00;97924.25;5091107;28;20083;-60
2023/11/28 09:17:14;;;;;;;0.60;0.60;;;;;;;-0.27;100.00;97933.19;5098289;28;20040;-60
2023/11/28 09:19:43;;;;;;;0.70;0.70;;;;;;;-0.19;100.00;97934.78;5093239;28;20429;-60
2023/11/28 09:22:10;;;;;;;0.95;0.95;;;;;;;-0.32;100.00;97951.41;5097106;28;20067;-61
2023/11/28 09:24:38;;;;;;;0.80;0.80;;;;;;;-0.34;100.00;97950.78;5089684;28;20093;-60
2023/11/28 09:27:07;;;;;;;0.68;0.68;;;;;;;-0.44;100.00;97955.66;5090689;28;20448;-61
2023/11/28 09:29:35;;;;;;;0.70;0.70;;;;;;;-0.41;100.00;97957.88;5091455;28;20064;-58
2023/11/28 09:32:03;;;;;;;0.70;0.70;;;;;;;-0.35;100.00;97966.78;5088122;28;20175;-60
2023/11/28 09:34:31;;;;;;;0.90;0.90;;;;;;;-0.22;100.00;97964.97;5096147;28;20039;-60
2023/11/28 09:37:01;;;;;;;0.88;0.88;;;;;;;-0.43;100.00;97987.03;5077613;28;20047;-60
2023/11/28 09:39:28;;;;;;;0.80;0.80;;;;;;;-0.46;100.00;97981.38;5095713;28;20063;-60
2023/11/28 09:41:55;;;;;;;0.77;0.77;;;;;;;-0.52;100.00;97987.47;5086715;28;20051;-58
2023/11/28 09:44:25;;;;;;;0.80;0.80;;;;;;;-0.40;100.00;97996.38;5090693;28;20062;-58
2023/11/28 09:46:52;;;;;;;0.80;0.80;;;;;;;-0.29;100.00;98008.94;5088197;28;20047;-59
2023/11/28 09:49:19;;;;;;;0.70;0.70;;;;;;;-0.30;100.00;98012.59;5095441;28;20120;-59
2023/11/28 09:51:47;;;;;;;0.70;0.70;;;;;;;-0.39;100.00;98018.25;5087479;28;20046;-58
2023/11/28 09:54:16;;;;;;;0.77;0.77;;;;;;;-0.22;100.00;98020.28;5084350;28;20550;-59
2023/11/28 09:56:44;;;;;;;0.75;0.75;;;;;;;-0.22;100.00;98027.38;5089778;28;20102;-59
2023/11/28 09:59:11;;;;;;;0.80;0.80;;;;;;;-0.29;100.00;98023.91;5087115;28;20500;-59
2023/11/28 10:01:38;;;;;;;0.80;0.80;;;;;;;-0.32;100.00;98034.88;5089987;28;20490;-60
2023/11/28 10:04:06;;;;;;;0.70;0.70;;;;;;;-0.37;100.00;98035.47;5089488;28;20058;-60
2023/11/28 10:06:33;;;;;;;0.80;0.80;;;;;;;-0.33;100.00;98034.03;5088154;28;20092;-60
2023/11/28 10:09:00;;;;;;;0.85;0.85;;;;;;;-0.36;100.00;98042.34;5086958;28;20101;-61
2023/11/28 10:11:29;;;;;;;0.70;0.70;;;;;;;-0.15;100.00;98048.41;5093053;28;20063;-60
2023/11/28 10:13:56;;;;;;;0.80;0.80;;;;;;;-0.24;100.00;98042.56;5087417;28;20131;-59
2023/11/28 10:16:41;;;;;;;0.80;0.80;;;;;;;-0.23;100.00;98039.69;5083624;28;20498;-60
2023/11/28 10:19:08;;;;;;;0.70;0.70;;;;;;;-0.31;100.00;98039.09;5087641;28;20404;-61
2023/11/28 10:21:36;;;;;;;0.80;0.80;;;;;;;-0.19;100.00;98049.84;5086549;28;20036;-60
2023/11/28 10:24:06;;;;;;;0.70;0.70;;;;;;;-0.52;100.00;98058.53;5094280;28;20620;-60
2023/11/28 10:26:36;;;;;;;0.80;0.80;;;;;;;-0.55;100.00;98061.53;5085276;28;20062;-59
2023/11/28 10:29:05;;;;;;;0.85;0.85;;;;;;;-0.51;100.00;98057.50;5094266;28;20390;-59
2023/11/28 10:31:36;;;;;;;0.80;0.80;;;;;;;-0.41;100.00;98059.75;5089033;28;20089;-59
2023/11/28 10:34:08;;;;;;;;;;;;;;;-0.47;100.00;98066.63;5088555;28;20048;-59
2023/11/28 10:36:42;;;;;;;0.82;0.82;;;;;;;-0.57;100.00;98069.66;5089106;28;19996;-60
2023/11/28 10:39:10;;;;;;;0.80;0.80;;;;;;;-0.49;100.00;98077.34;5075381;28;20097;-59
2023/11/28 10:41:41;;;;;;;0.75;0.75;;;;;;;-0.55;100.00;98077.31;5105632;27;20051;-60
2023/11/28 10:44:08;;;;;;;0.80;0.80;;;;;;;-0.45;100.00;98085.66;5097252;28;20150;-59
2023/11/28 10:46:36;;;;;;;0.68;0.68;;;;;;;-0.51;100.00;98083.81;5091503;28;20442;-60
2023/11/28 10:49:05;;;;;;;0.90;0.90;;;;;;;-0.53;100.00;98085.84;5109931;27;20063;-59
2023/11/28 10:51:32;;;;;;;0.82;0.82;;;;;;;-0.50;100.00;98095.97;5094431;28;20035;-59
2023/11/28 10:54:07;;;;;;;0.82;0.82;;;;;;;-0.33;100.00;98093.78;5084645;28;20607;-59
2023/11/28 10:56:43;;;;;;;0.80;0.80;;;;;;;-0.23;100.00;98108.16;5088763;28;20061;-59
2023/11/28 10:59:14;;;;;;;0.80;0.80;;;;;;;-0.38;100.00;98110.19;5090348;27;20044;-59
2023/11/28 11:01:43;;;;;;;0.88;0.88;;;;;;;-0.27;100.00;98106.16;5089645;28;20039;-59
2023/11/28 11:04:11;;;;;;;0.90;0.90;;;;;;;-0.24;100.00;98116.28;5090097;28;20044;-59
2023/11/28 11:06:40;;;;;;;0.90;0.90;;;;;;;-0.31;100.00;98116.25;5086661;28;20036;-59
2023/11/28 11:09:07;;;;;;;0.93;0.93;;;;;;;-0.46;100.00;98129.59;5096863;28;20574;-59
2023/11/28 11:11:34;;;;;;;0.63;0.63;;;;;;;-0.40;100.00;98135.06;5092209;28;20040;-59
2023/11/28 11:14:07;;;;;;;0.82;0.82;;;;;;;-0.30;100.00;98144.25;5092197;28;20505;-59
2023/11/28 11:16:38;;;;;;;0.77;0.77;;;;;;;-0.40;100.00;98149.06;5090917;28;20039;-59
2023/11/28 11:19:05;;;;;;;0.80;0.80;;;;;;;-0.36;100.00;98152.91;5086626;28;20062;-59
2023/11/28 11:21:36;;;;;;;0.70;0.70;;;;;;;-0.35;100.00;98156.34;5088915;28;20911;-62
2023/11/28 11:24:03;;;;;;;0.73;0.73;;;;;;;-0.37;100.00;98153.94;5091666;28;20039;-59
2023/11/28 11:26:31;;;;;;;0.88;0.88;;;;;;;-0.26;100.00;98158.63;5090775;28;20048;-59
2023/11/28 11:28:58;;;;;;;0.63;0.63;;;;;;;-0.18;100.00;98157.63;5097384;28;20607;-59
2023/11/28 11:31:26;;;;;;;0.70;0.70;;;;;;;-0.19;100.00;98165.72;5097565;28;20620;-61